Christchurch International Airport
NZCH : now visible

Airfield :











YOU CAN JOIN US ON...

 
LOGIN :

Register | Disclaimer

   EN    FR    IT 

 









Legend :    VFR   Marginal VFR   IFR   Intensive IFR   Very Intensive IFR
Visi :
Ceiling :
>= 8 km
>= 3000ft
5 to 8 km
1000 to 3000 ft
1500m to 5 km
500 to 1000 ft
800 to 1500m
200 to 500 ft
< 800m
< 200 ft
Symbols :   Thunderstorms  Fog  Heavy snow  Heavy precipitations  Wind > 20 kt







- Airport Elevation : 123 ft
- IATA code : CHC


NZCH - Christchurch International

CURRENT METAR :
  • 162200Z AUTO 27003KT 9999 NCD 05/03 Q1010 NOSIG

EXPIRED METARs :
  • 162130Z AUTO 26003KT 9999 NCD 02/01 Q1010 BECMG 22015KT
  • 162100Z AUTO 00000KT 9999 NCD 02/01 Q1009
  • 162030Z AUTO 24004KT 110V320 9999 NCD 02/01 Q1009 BECMG 22015KT
  • 162000Z AUTO 32002KT 9999 NCD 02/01 Q1008 BECMG 22015KT
  • 161930Z AUTO 02003KT 9999 OVC100/// 02/00 Q1008 BECMG 22015KT

TAF TAF NZCH
Valid from the 16 at 18:00 until the 17 at 18:00 UTC


161701Z 1618/1718 22015KT 9999 SCT040
FM170300 22018G35KT 9999 -SHRA SCT020
TEMPO 1703/1710 6000 SHRA
PROB30
TEMPO 1703/1710 3000 +SHRA FEW020TCU
FM171200 22015G25KT 9999 FEW030
NZZC FIR / Oceania



MET'MAP, your aeronautical weather chart ! - Copyright ORBIFLY December 2007 - Disclaimer

ORBIFLY MET'MAP TEAM :

Programming & Development : Alexandra Zaïnal
Concept & Development : Baudouin d'Aumeries
Co-Development & Prog : Marc-Olivier Méhu
Technical & hardware support : Manuel Goepfert

Contact : metmap@orbifly.com




SOURCES & CREDITS :

   NOAA       Earth
Advisory